Terminal Aerodrome Forecast
Issued by NWS

Home | Current Version | Previous Version | Text Only | Print | Product List | Glossary On
Versions: 1 2 3 4 5 6 7 8 9 10 11 12 13 14
000
FTUS44 KBMX 162300
TAFTCL
TAF
KTCL 162334Z 1700/1724 32004KT P6SM FEW070 SCT150
     FM170900 32003KT P6SM SCT025 SCT040
      TEMPO 1709/1712 BKN025
     FM171400 33005KT P6SM SCT040 SCT250=

USA.gov is the U.S. government's official web portal to all federal, state and local government web resources and services.